Time;durP1;ratioP1;P1;durP2;ratioP2;P2;SDS_P1;SDS_P2;PMS_P1;PMS_P2;Temp;Humidity;BMP_temperature;BMP_pressure;BME280_temperature;BME280_humidity;BME280_pressure;Samples;Min_cycle;Max_cycle;Signal;HPM_P1;HPM_P2
2022/03/07 00:01:50;;;;;;;3.33;2.25;;;19.80;43.50;;;;;;5012967;28;20038;-77
2022/03/07 00:04:17;;;;;;;3.60;2.50;;;19.80;43.50;;;;;;4995132;28;20045;-77
2022/03/07 00:06:47;;;;;;;3.63;2.20;;;19.80;43.40;;;;;;4995291;28;20052;-77
2022/03/07 00:09:13;;;;;;;3.17;2.40;;;19.80;43.40;;;;;;5012753;28;20061;-77
2022/03/07 00:11:40;;;;;;;3.25;2.42;;;19.90;44.20;;;;;;4995209;28;20470;-77
2022/03/07 00:14:06;;;;;;;2.83;2.00;;;19.90;43.40;;;;;;5011302;28;20034;-77
2022/03/07 00:16:32;;;;;;;2.97;2.40;;;19.80;43.30;;;;;;5012395;28;20029;-76
2022/03/07 00:18:58;;;;;;;3.35;2.38;;;19.80;43.50;;;;;;5012457;28;20404;-77
2022/03/07 00:21:24;;;;;;;2.67;2.20;;;19.80;43.50;;;;;;5012033;28;20041;-77
2022/03/07 00:23:50;;;;;;;3.92;2.40;;;19.80;43.50;;;;;;4995026;28;20069;-76
2022/03/07 00:26:17;;;;;;;2.92;2.20;;;19.80;43.50;;;;;;5011213;28;20116;-77
2022/03/07 00:28:43;;;;;;;3.63;2.33;;;19.80;43.60;;;;;;5011228;28;20057;-77
2022/03/07 00:31:12;;;;;;;3.83;2.47;;;19.80;43.60;;;;;;4994841;28;20398;-77
2022/03/07 00:33:38;;;;;;;4.25;2.17;;;19.80;43.60;;;;;;5011967;28;20526;-77
2022/03/07 00:36:05;;;;;;;3.75;2.50;;;19.80;43.60;;;;;;5010998;28;20032;-77
2022/03/07 00:38:31;;;;;;;3.00;2.10;;;19.70;43.60;;;;;;5012092;28;20387;-77
2022/03/07 00:40:57;;;;;;;3.30;2.30;;;19.80;43.60;;;;;;5011924;28;20139;-77
2022/03/07 00:43:23;;;;;;;3.05;2.13;;;19.80;43.60;;;;;;5010794;28;20034;-76
2022/03/07 00:45:49;;;;;;;2.88;2.05;;;19.80;43.70;;;;;;4994488;28;20391;-77
2022/03/07 00:48:17;;;;;;;3.10;2.17;;;19.80;43.70;;;;;;5010838;28;20565;-77
2022/03/07 00:50:44;;;;;;;3.80;2.20;;;19.70;43.50;;;;;;5011683;28;20394;-77
2022/03/07 00:53:11;;;;;;;2.65;2.10;;;19.70;43.60;;;;;;5012298;28;20029;-77
2022/03/07 00:55:38;;;;;;;3.42;2.10;;;19.80;43.50;;;;;;5010853;28;20061;-77
2022/03/07 00:58:04;;;;;;;3.80;2.30;;;19.70;43.60;;;;;;4994554;28;20038;-77
2022/03/07 01:00:31;;;;;;;3.47;2.20;;;19.70;43.60;;;;;;5010168;28;20044;-77
2022/03/07 01:02:57;;;;;;;2.97;2.00;;;19.70;43.60;;;;;;5010559;28;20564;-77
2022/03/07 01:05:23;;;;;;;3.22;2.30;;;19.70;43.50;;;;;;5010623;28;20033;-77
2022/03/07 01:07:49;;;;;;;2.63;2.10;;;19.80;43.60;;;;;;5010816;28;20021;-76
2022/03/07 01:10:14;;;;;;;3.35;2.10;;;19.80;43.50;;;;;;5010230;28;20029;-77
2022/03/07 01:12:40;;;;;;;3.15;2.10;;;19.80;43.50;;;;;;4994044;28;20062;-77
2022/03/07 01:15:07;;;;;;;3.13;2.15;;;19.80;43.50;;;;;;5011552;28;20044;-77
2022/03/07 01:17:34;;;;;;;2.70;2.15;;;19.80;43.50;;;;;;4994041;28;20038;-77
2022/03/07 01:20:00;;;;;;;3.15;2.20;;;19.80;43.60;;;;;;5010134;28;20052;-77
2022/03/07 01:22:26;;;;;;;2.78;2.10;;;19.80;43.50;;;;;;5010515;28;20103;-77
2022/03/07 01:24:52;;;;;;;3.42;2.00;;;19.80;43.50;;;;;;4993767;28;20486;-76
2022/03/07 01:27:17;;;;;;;2.60;2.10;;;19.70;43.50;;;;;;4994011;28;20033;-77
2022/03/07 01:29:43;;;;;;;3.60;1.90;;;19.80;43.50;;;;;;4993616;28;20083;-77
2022/03/07 01:32:09;;;;;;;3.28;1.85;;;19.80;43.60;;;;;;5010070;28;20034;-77
2022/03/07 01:34:35;;;;;;;2.70;2.17;;;19.80;43.60;;;;;;5010008;28;20033;-77
2022/03/07 01:37:01;;;;;;;3.03;2.10;;;19.80;43.60;;;;;;5010367;28;20034;-77
2022/03/07 01:39:27;;;;;;;3.10;2.10;;;19.70;43.60;;;;;;5009941;28;20113;-77
2022/03/07 01:41:52;;;;;;;2.90;1.98;;;19.80;43.60;;;;;;5011567;28;20117;-77
2022/03/07 01:44:21;;;;;;;3.58;2.00;;;19.70;43.60;;;;;;5011137;28;20034;-77
2022/03/07 01:46:47;;;;;;;2.85;2.00;;;19.80;43.60;;;;;;5010090;28;20048;-77
2022/03/07 01:49:13;;;;;;;2.90;2.08;;;19.70;43.60;;;;;;4994177;28;20474;-77
2022/03/07 01:51:44;;;;;;;2.42;1.80;;;19.70;43.60;;;;;;5014727;28;20026;-77
2022/03/07 01:54:14;;;;;;;2.83;1.90;;;19.70;43.60;;;;;;4997880;28;20057;-77
2022/03/07 01:56:42;;;;;;;2.88;1.90;;;19.70;43.50;;;;;;5013882;28;20034;-77
2022/03/07 01:59:15;;;;;;;3.00;1.90;;;19.70;43.60;;;;;;5013865;28;20113;-77
2022/03/07 02:01:42;;;;;;;2.72;2.00;;;19.70;43.50;;;;;;5013561;28;20371;-77
2022/03/07 02:04:09;;;;;;;2.42;1.90;;;19.70;43.60;;;;;;5013692;28;20036;-77
2022/03/07 02:06:38;;;;;;;2.83;1.90;;;19.70;43.60;;;;;;5013852;28;20033;-76
2022/03/07 02:09:06;;;;;;;3.42;2.17;;;19.70;43.60;;;;;;5014013;28;20037;-77
2022/03/07 02:11:38;;;;;;;2.85;1.90;;;19.70;43.50;;;;;;4997917;28;20499;-77
2022/03/07 02:14:12;;;;;;;3.13;1.98;;;19.70;43.70;;;;;;4997282;28;20064;-77
2022/03/07 02:16:39;;;;;;;3.05;1.90;;;19.70;43.60;;;;;;5014788;28;20030;-77
2022/03/07 02:19:05;;;;;;;3.25;1.88;;;19.70;43.60;;;;;;5014942;28;20510;-77
2022/03/07 02:21:34;;;;;;;3.15;2.15;;;19.70;43.50;;;;;;5013225;28;20034;-77
2022/03/07 02:24:14;;;;;;;2.45;1.85;;;19.70;43.60;;;;;;4999175;28;20029;-77
2022/03/07 02:26:43;;;;;;;3.10;2.10;;;19.80;43.50;;;;;;5013377;28;20066;-77
2022/03/07 02:29:10;;;;;;;2.38;1.90;;;19.80;43.50;;;;;;5013358;28;20030;-77
2022/03/07 02:31:36;;;;;;;3.97;2.03;;;19.80;43.60;;;;;;5014458;28;20371;-77
2022/03/07 02:34:06;;;;;;;2.50;1.90;;;19.80;43.30;;;;;;5013423;28;20491;-77
2022/03/07 02:36:32;;;;;;;2.53;1.90;;;19.80;43.50;;;;;;5013266;28;20045;-77
2022/03/07 02:39:00;;;;;;;2.30;1.75;;;19.80;43.40;;;;;;5013393;28;20076;-77
2022/03/07 02:41:25;;;;;;;2.45;1.80;;;19.80;43.40;;;;;;5012974;28;20546;-77
2022/03/07 02:43:52;;;;;;;2.30;1.80;;;19.80;43.50;;;;;;5013106;28;20030;-77
2022/03/07 02:46:18;;;;;;;2.22;1.80;;;19.70;43.40;;;;;;5014375;28;20662;-77
2022/03/07 02:48:44;;;;;;;2.50;1.58;;;19.80;43.40;;;;;;5013034;28;20117;-77
2022/03/07 02:51:10;;;;;;;3.08;1.90;;;19.70;43.50;;;;;;5012719;28;20030;-77
2022/03/07 02:53:36;;;;;;;2.53;1.80;;;19.70;43.50;;;;;;4996863;28;20736;-77
2022/03/07 02:56:02;;;;;;;2.95;1.92;;;19.70;43.50;;;;;;5014289;28;20057;-77
2022/03/07 02:58:28;;;;;;;3.60;1.80;;;19.70;43.50;;;;;;5012595;28;20100;-77
2022/03/07 03:00:53;;;;;;;2.33;1.70;;;19.70;43.50;;;;;;5012702;28;20026;-77
2022/03/07 03:03:19;;;;;;;2.05;1.60;;;19.70;43.50;;;;;;5014379;28;20405;-77
2022/03/07 03:05:45;;;;;;;2.55;1.80;;;19.70;43.50;;;;;;5012784;28;20034;-77
2022/03/07 03:08:10;;;;;;;2.15;1.70;;;19.70;43.60;;;;;;5013125;28;20435;-77
2022/03/07 03:10:36;;;;;;;4.35;1.77;;;19.70;43.40;;;;;;5012829;28;20034;-77
2022/03/07 03:13:02;;;;;;;2.22;1.70;;;19.70;43.50;;;;;;4996764;28;20030;-76
2022/03/07 03:15:28;;;;;;;2.60;1.77;;;19.70;43.60;;;;;;5014505;28;20096;-77
2022/03/07 03:17:54;;;;;;;2.75;2.08;;;19.70;43.40;;;;;;5015391;28;20037;-76
2022/03/07 03:20:19;;;;;;;2.25;1.70;;;19.70;43.60;;;;;;5014250;28;20088;-76
2022/03/07 03:22:45;;;;;;;2.55;1.70;;;19.70;43.60;;;;;;5015933;28;20044;-77
2022/03/07 03:25:15;;;;;;;2.15;1.63;;;19.70;43.50;;;;;;5015715;28;20026;-77
2022/03/07 03:27:41;;;;;;;2.80;1.73;;;19.70;43.60;;;;;;4996232;28;20183;-77
2022/03/07 03:30:09;;;;;;;2.42;2.00;;;19.70;43.50;;;;;;5013036;28;20029;-77
2022/03/07 03:32:35;;;;;;;2.53;1.80;;;19.70;43.50;;;;;;5013392;28;20065;-77
2022/03/07 03:35:01;;;;;;;2.30;1.60;;;19.70;43.60;;;;;;5013446;28;20026;-77
2022/03/07 03:37:27;;;;;;;3.00;1.90;;;19.70;43.40;;;;;;5013651;28;20042;-77
2022/03/07 03:39:53;;;;;;;2.75;1.90;;;19.70;43.30;;;;;;5013033;28;20041;-77
2022/03/07 03:42:21;;;;;;;3.15;1.55;;;19.80;43.40;;;;;;5012200;28;20037;-77
2022/03/07 03:44:48;;;;;;;2.55;1.80;;;19.80;43.60;;;;;;5013292;28;20033;-77
2022/03/07 03:47:14;;;;;;;2.22;1.60;;;19.70;43.50;;;;;;5011857;28;20036;-77
2022/03/07 03:49:39;;;;;;;3.45;1.88;;;19.70;43.50;;;;;;5012600;28;20022;-77
2022/03/07 03:52:07;;;;;;;3.90;1.90;;;19.80;43.20;;;;;;5013151;28;20037;-77
2022/03/07 03:54:34;;;;;;;3.13;1.90;;;19.70;43.40;;;;;;5013392;28;20037;-77
2022/03/07 03:56:59;;;;;;;2.78;1.85;;;19.80;43.40;;;;;;5011772;28;20042;-77
2022/03/07 03:59:25;;;;;;;2.22;1.75;;;19.80;43.50;;;;;;5011751;28;20037;-77
2022/03/07 04:01:51;;;;;;;2.20;1.60;;;19.80;43.50;;;;;;5012866;28;20100;-77
2022/03/07 04:04:16;;;;;;;3.28;1.77;;;19.80;43.50;;;;;;5011453;28;20371;-77
2022/03/07 04:06:42;;;;;;;2.38;1.70;;;19.70;43.50;;;;;;5012805;28;20530;-77
2022/03/07 04:09:18;;;;;;;3.03;1.85;;;19.70;43.60;;;;;;5011506;28;20049;-77
2022/03/07 04:11:44;;;;;;;2.22;1.60;;;19.70;43.50;;;;;;5011324;28;20034;-77
2022/03/07 04:14:10;;;;;;;2.85;1.75;;;19.70;43.40;;;;;;5011016;28;20037;-77
2022/03/07 04:16:38;;;;;;;2.20;1.73;;;19.70;43.50;;;;;;5011222;28;20095;-77
2022/03/07 04:19:06;;;;;;;1.90;1.60;;;19.70;43.50;;;;;;5011462;28;20033;-77
2022/03/07 04:21:32;;;;;;;2.20;1.60;;;19.70;43.50;;;;;;5012133;28;20086;-77
2022/03/07 04:23:58;;;;;;;2.20;1.67;;;19.70;43.40;;;;;;5012609;28;20026;-77
2022/03/07 04:26:23;;;;;;;2.95;1.63;;;19.70;43.50;;;;;;5012691;28;20029;-77
2022/03/07 04:28:49;;;;;;;2.80;1.80;;;19.70;43.50;;;;;;5011132;28;20024;-77
2022/03/07 04:31:15;;;;;;;2.38;1.73;;;19.70;43.50;;;;;;5011904;28;20030;-77
2022/03/07 04:33:41;;;;;;;2.60;1.80;;;19.70;43.50;;;;;;5012327;28;20026;-76
2022/03/07 04:36:07;;;;;;;2.38;1.65;;;19.70;43.50;;;;;;5011085;28;20033;-77
2022/03/07 04:38:32;;;;;;;2.22;1.70;;;19.70;43.50;;;;;;5012382;28;20026;-77
2022/03/07 04:40:58;;;;;;;1.92;1.60;;;19.70;43.60;;;;;;5012149;28;20112;-77
2022/03/07 04:43:24;;;;;;;4.55;1.90;;;19.70;43.60;;;;;;5011054;28;20030;-77
2022/03/07 04:45:52;;;;;;;2.75;1.80;;;19.70;43.50;;;;;;5010858;28;20080;-77
2022/03/07 04:48:21;;;;;;;3.00;1.77;;;19.70;43.60;;;;;;5011772;28;20048;-77
2022/03/07 04:50:47;;;;;;;3.28;1.90;;;19.70;43.50;;;;;;4994638;28;20037;-77
2022/03/07 04:53:13;;;;;;;2.38;1.90;;;19.70;43.50;;;;;;4994890;28;20118;-76
2022/03/07 04:55:39;;;;;;;2.20;1.70;;;19.70;43.40;;;;;;5011902;28;20479;-77
2022/03/07 04:58:05;;;;;;;2.50;1.90;;;19.80;43.40;;;;;;4994205;28;20056;-77
2022/03/07 05:00:31;;;;;;;2.15;1.70;;;19.80;43.50;;;;;;4994072;28;20053;-77
2022/03/07 05:02:57;;;;;;;2.90;1.95;;;19.80;43.30;;;;;;5010781;28;20128;-77
2022/03/07 05:05:23;;;;;;;2.90;1.90;;;19.80;43.40;;;;;;5010607;28;20100;-77
2022/03/07 05:07:49;;;;;;;2.63;1.70;;;19.80;43.40;;;;;;5012066;28;20054;-77
2022/03/07 05:10:17;;;;;;;3.67;1.70;;;19.80;43.40;;;;;;5011041;28;20030;-77
2022/03/07 05:12:43;;;;;;;2.53;1.63;;;19.80;43.50;;;;;;5011780;28;20487;-77
2022/03/07 05:15:10;;;;;;;2.70;1.85;;;19.80;43.40;;;;;;5010316;28;20499;-77
2022/03/07 05:17:48;;;;;;;2.53;1.98;;;19.80;43.40;;;;;;5010497;28;20022;-77
2022/03/07 05:20:15;;;;;;;2.85;2.00;;;19.70;43.50;;;;;;5011478;28;20065;-76
2022/03/07 05:22:42;;;;;;;3.30;2.00;;;19.80;43.50;;;;;;5010911;28;20044;-76
2022/03/07 05:25:10;;;;;;;2.67;1.85;;;19.70;43.50;;;;;;5010765;28;20061;-76
2022/03/07 05:27:36;;;;;;;2.40;1.90;;;19.70;43.50;;;;;;4994123;28;20483;-76
2022/03/07 05:30:02;;;;;;;3.00;1.77;;;19.70;43.50;;;;;;5011580;28;20044;-76
2022/03/07 05:32:28;;;;;;;3.00;1.92;;;19.70;43.60;;;;;;5011572;28;20609;-76
2022/03/07 05:34:54;;;;;;;3.28;2.00;;;19.70;43.50;;;;;;5010260;28;20045;-76
2022/03/07 05:37:20;;;;;;;2.75;1.90;;;19.70;43.60;;;;;;5011346;28;20045;-75
2022/03/07 05:39:45;;;;;;;3.53;2.00;;;19.70;43.60;;;;;;5011301;28;20306;-76
2022/03/07 05:42:11;;;;;;;3.10;1.80;;;19.70;43.50;;;;;;5011291;28;20109;-76
2022/03/07 05:44:37;;;;;;;3.80;2.25;;;19.70;43.40;;;;;;4993717;28;20034;-76
2022/03/07 05:47:03;;;;;;;2.53;1.90;;;19.70;44.10;;;;;;5010244;28;20026;-75
2022/03/07 05:49:29;;;;;;;2.38;1.75;;;19.70;43.70;;;;;;5010336;28;20501;-75
2022/03/07 05:51:55;;;;;;;3.70;1.90;;;19.70;43.60;;;;;;5011628;28;20022;-76
2022/03/07 05:54:21;;;;;;;3.40;1.73;;;19.70;43.60;;;;;;5010315;28;20563;-76
2022/03/07 05:56:46;;;;;;;2.67;2.10;;;19.70;43.60;;;;;;5011364;28;20142;-77
2022/03/07 05:59:12;;;;;;;2.75;2.00;;;19.70;43.60;;;;;;5011470;28;20108;-78
2022/03/07 06:01:38;;;;;;;3.33;2.10;;;19.70;43.60;;;;;;5010008;28;20066;-77
2022/03/07 06:04:04;;;;;;;2.97;1.77;;;19.70;43.60;;;;;;5010451;28;20109;-76
2022/03/07 06:06:30;;;;;;;3.50;2.10;;;19.70;43.50;;;;;;5011215;28;20034;-77
2022/03/07 06:08:56;;;;;;;2.80;2.00;;;19.70;43.50;;;;;;5010422;28;20026;-76
2022/03/07 06:11:22;;;;;;;2.97;2.22;;;19.70;43.50;;;;;;5009885;28;20022;-75
2022/03/07 06:13:47;;;;;;;3.17;2.13;;;19.80;43.40;;;;;;5011116;28;20080;-77
2022/03/07 06:16:13;;;;;;;3.45;2.00;;;19.80;43.30;;;;;;5011501;28;20025;-76
2022/03/07 06:18:39;;;;;;;2.67;2.00;;;19.70;43.30;;;;;;5011299;28;20048;-76
2022/03/07 06:21:05;;;;;;;2.63;2.00;;;19.70;43.40;;;;;;5010161;28;20415;-76
2022/03/07 06:23:31;;;;;;;4.57;2.42;;;19.70;43.40;;;;;;5010130;28;20026;-77
2022/03/07 06:25:57;;;;;;;2.75;2.10;;;19.70;43.50;;;;;;5010140;28;20034;-77
2022/03/07 06:28:23;;;;;;;3.40;2.20;;;19.70;43.30;;;;;;5011109;28;20022;-77
2022/03/07 06:30:48;;;;;;;4.60;2.40;;;19.70;43.40;;;;;;5010980;28;20022;-76
2022/03/07 06:33:17;;;;;;;2.55;1.90;;;19.70;43.50;;;;;;5010979;28;20104;-77
2022/03/07 06:35:43;;;;;;;3.78;2.30;;;19.70;43.50;;;;;;5010155;28;20034;-77
2022/03/07 06:38:09;;;;;;;4.13;2.70;;;19.70;43.50;;;;;;5014596;28;20033;-77
2022/03/07 06:40:35;;;;;;;3.05;2.00;;;19.70;43.50;;;;;;5014184;28;20049;-77
2022/03/07 06:43:01;;;;;;;2.85;1.80;;;19.70;43.60;;;;;;5014427;28;20376;-77
2022/03/07 06:45:28;;;;;;;2.47;1.85;;;19.70;43.60;;;;;;5012705;28;20038;-77
2022/03/07 06:47:54;;;;;;;3.88;2.42;;;19.70;43.50;;;;;;5013033;28;20040;-77
2022/03/07 06:50:20;;;;;;;3.67;2.25;;;19.70;43.60;;;;;;5014437;28;20109;-77
2022/03/07 06:52:46;;;;;;;3.35;2.10;;;19.70;43.50;;;;;;5014512;28;20110;-77
2022/03/07 06:55:13;;;;;;;3.50;2.15;;;19.70;43.50;;;;;;5013341;28;20030;-77
2022/03/07 06:57:40;;;;;;;4.20;2.28;;;19.70;43.90;;;;;;5012916;28;20048;-77
2022/03/07 07:00:09;;;;;;;3.72;2.08;;;19.70;43.50;;;;;;5014109;28;20022;-77
2022/03/07 07:02:35;;;;;;;4.00;2.20;;;19.70;43.50;;;;;;4996795;28;20521;-76
2022/03/07 07:05:02;;;;;;;3.88;1.95;;;19.70;43.50;;;;;;5014419;28;20058;-77
2022/03/07 07:07:32;;;;;;;3.13;1.90;;;19.80;43.60;;;;;;5013639;28;20022;-77
2022/03/07 07:09:58;;;;;;;2.70;2.00;;;19.80;43.60;;;;;;5012702;28;20034;-76
2022/03/07 07:12:23;;;;;;;5.22;2.40;;;19.80;43.60;;;;;;5012751;28;20022;-77
2022/03/07 07:14:49;;;;;;;3.75;2.25;;;19.80;43.60;;;;;;5014052;28;20030;-77
2022/03/07 07:17:17;;;;;;;3.38;2.30;;;19.70;43.40;;;;;;4996253;28;20034;-76
2022/03/07 07:19:43;;;;;;;2.90;2.15;;;19.80;43.40;;;;;;5012510;28;20113;-76
2022/03/07 07:22:09;;;;;;;2.80;1.73;;;19.80;43.40;;;;;;5013612;28;20394;-76
2022/03/07 07:24:36;;;;;;;2.88;2.10;;;19.80;43.30;;;;;;5013583;28;20034;-76
2022/03/07 07:27:02;;;;;;;3.40;2.20;;;19.80;43.40;;;;;;5013668;28;20475;-76
2022/03/07 07:29:27;;;;;;;3.42;2.15;;;19.80;43.40;;;;;;5013624;28;20037;-77
2022/03/07 07:31:53;;;;;;;3.17;2.17;;;19.80;43.40;;;;;;5013537;28;20018;-77
2022/03/07 07:34:20;;;;;;;4.47;2.50;;;19.80;43.40;;;;;;5013893;28;20368;-77
2022/03/07 07:36:46;;;;;;;3.15;2.15;;;19.80;43.40;;;;;;5013331;28;20053;-77
2022/03/07 07:39:12;;;;;;;3.97;2.22;;;19.90;43.50;;;;;;4996001;28;20475;-76
2022/03/07 07:41:38;;;;;;;3.50;2.33;;;19.80;43.40;;;;;;5012033;28;20113;-77
2022/03/07 07:44:04;;;;;;;3.78;2.40;;;19.90;43.40;;;;;;5013312;28;20026;-77
2022/03/07 07:46:29;;;;;;;3.95;2.10;;;19.90;43.30;;;;;;5011868;28;20053;-77
2022/03/07 07:48:56;;;;;;;4.28;2.40;;;19.90;43.20;;;;;;4979081;28;20129;-78
2022/03/07 07:51:22;;;;;;;3.78;2.40;;;19.90;43.30;;;;;;5012898;28;20032;-77
2022/03/07 07:53:48;;;;;;;3.83;2.38;;;19.90;43.30;;;;;;5012340;28;20029;-77
2022/03/07 07:56:14;;;;;;;3.72;2.30;;;19.90;43.30;;;;;;5012212;28;20022;-78
2022/03/07 07:58:40;;;;;;;3.55;2.40;;;19.90;43.40;;;;;;5011778;28;20025;-78
2022/03/07 08:01:06;;;;;;;3.75;2.05;;;19.90;43.60;;;;;;5012941;28;20467;-78
2022/03/07 08:03:32;;;;;;;3.80;2.20;;;19.90;43.10;;;;;;5011850;28;20148;-77
2022/03/07 08:05:59;;;;;;;3.40;2.40;;;19.90;43.30;;;;;;4995358;28;20037;-78
2022/03/07 08:08:24;;;;;;;3.35;2.20;;;19.90;43.50;;;;;;5012768;28;20028;-78
2022/03/07 08:10:50;;;;;;;2.60;2.10;;;20.00;43.70;;;;;;5012660;28;20034;-77
2022/03/07 08:13:16;;;;;;;2.50;2.05;;;20.00;43.70;;;;;;5013057;28;20028;-77
2022/03/07 08:15:42;;;;;;;3.90;2.30;;;20.00;44.20;;;;;;5012385;28;20029;-77
2022/03/07 08:18:08;;;;;;;3.47;2.22;;;20.00;44.10;;;;;;5012747;28;20030;-77
2022/03/07 08:20:34;;;;;;;4.18;2.35;;;20.00;44.30;;;;;;5012305;28;20025;-77
2022/03/07 08:23:00;;;;;;;2.97;2.10;;;20.00;44.40;;;;;;5012941;28;20542;-77
2022/03/07 08:25:26;;;;;;;3.63;2.15;;;20.00;44.50;;;;;;4994861;28;20125;-77
2022/03/07 08:27:53;;;;;;;3.30;2.13;;;20.10;44.60;;;;;;5012646;28;20084;-77
2022/03/07 08:30:21;;;;;;;5.32;2.38;;;20.10;44.60;;;;;;5012424;28;20022;-77
2022/03/07 08:32:47;;;;;;;3.35;2.10;;;20.10;44.70;;;;;;5012588;28;20480;-77
2022/03/07 08:35:13;;;;;;;4.15;2.30;;;20.10;44.70;;;;;;4979005;28;20045;-78
2022/03/07 08:37:39;;;;;;;2.97;2.00;;;20.10;44.80;;;;;;5011471;28;20040;-77
2022/03/07 08:40:07;;;;;;;3.50;2.20;;;20.10;44.70;;;;;;5012249;28;20037;-77
2022/03/07 08:42:34;;;;;;;4.30;2.35;;;20.20;44.80;;;;;;5012534;28;20037;-77
2022/03/07 08:45:00;;;;;;;4.47;2.40;;;20.20;44.90;;;;;;5012313;28;20456;-77
2022/03/07 08:47:26;;;;;;;3.10;2.00;;;20.20;44.90;;;;;;5012509;28;20110;-77
2022/03/07 08:49:52;;;;;;;3.05;1.90;;;20.20;44.90;;;;;;4994875;28;20032;-77
2022/03/07 08:52:18;;;;;;;3.10;1.98;;;20.20;44.90;;;;;;5011484;28;20029;-77
2022/03/07 08:54:45;;;;;;;2.80;2.10;;;20.20;44.90;;;;;;4995480;28;20034;-77
2022/03/07 08:57:11;;;;;;;3.30;2.30;;;20.20;44.90;;;;;;5011014;28;20060;-76
2022/03/07 08:59:37;;;;;;;3.00;2.00;;;20.20;45.00;;;;;;5010750;28;20038;-77
2022/03/07 09:02:03;;;;;;;2.85;2.00;;;20.20;45.00;;;;;;5011903;28;20034;-77
2022/03/07 09:04:29;;;;;;;3.80;2.00;;;20.20;45.00;;;;;;5012174;28;20168;-77
2022/03/07 09:06:55;;;;;;;3.45;2.10;;;20.20;45.00;;;;;;4994625;28;20093;-77
2022/03/07 09:09:21;;;;;;;3.33;2.13;;;20.20;45.00;;;;;;5011608;28;20084;-77
2022/03/07 09:11:47;;;;;;;4.03;2.38;;;20.30;45.10;;;;;;5011904;28;20109;-77
2022/03/07 09:14:13;;;;;;;3.15;2.03;;;20.20;45.00;;;;;;5012086;28;20116;-77
2022/03/07 09:16:39;;;;;;;2.92;2.05;;;20.20;45.00;;;;;;5011984;28;20152;-77
2022/03/07 09:19:05;;;;;;;2.97;2.10;;;20.30;45.10;;;;;;4994161;28;20497;-76
2022/03/07 09:21:30;;;;;;;3.50;2.08;;;20.30;45.10;;;;;;5011943;28;20036;-77
2022/03/07 09:23:56;;;;;;;4.82;2.28;;;20.30;45.10;;;;;;5010742;28;20053;-77
2022/03/07 09:26:22;;;;;;;3.83;2.15;;;20.30;45.10;;;;;;4994723;28;20040;-77
2022/03/07 09:28:47;;;;;;;3.22;2.10;;;20.30;45.00;;;;;;5011951;28;20091;-77
2022/03/07 09:31:13;;;;;;;3.20;2.15;;;20.30;45.00;;;;;;5010536;28;20034;-77
2022/03/07 09:33:39;;;;;;;4.75;2.30;;;20.30;45.00;;;;;;5010740;28;20478;-77
2022/03/07 09:36:05;;;;;;;3.20;2.10;;;20.30;45.00;;;;;;5010705;28;20030;-77
2022/03/07 09:38:34;;;;;;;3.88;2.17;;;20.30;45.00;;;;;;5010316;28;20152;-77
2022/03/07 09:41:01;;;;;;;3.22;1.75;;;20.40;45.10;;;;;;5010107;28;20113;-77
2022/03/07 09:43:26;;;;;;;3.75;2.40;;;20.40;45.00;;;;;;5011940;28;20075;-77
2022/03/07 09:45:53;;;;;;;3.00;2.17;;;20.40;45.00;;;;;;5011352;28;20540;-77
2022/03/07 09:48:21;;;;;;;4.65;2.20;;;20.40;45.00;;;;;;5011354;28;20282;-77
2022/03/07 09:50:47;;;;;;;2.53;1.83;;;20.40;45.00;;;;;;5009974;28;20030;-77
2022/03/07 09:53:13;;;;;;;4.53;2.35;;;20.40;45.00;;;;;;5011406;28;20022;-77
2022/03/07 09:55:40;;;;;;;3.85;2.35;;;20.40;45.10;;;;;;5010439;28;20125;-77
2022/03/07 09:58:06;;;;;;;3.72;2.25;;;20.40;45.00;;;;;;5011288;28;20426;-77
2022/03/07 10:00:33;;;;;;;3.50;1.80;;;20.30;44.90;;;;;;5011211;28;20066;-77
2022/03/07 10:03:09;;;;;;;3.38;2.10;;;20.30;44.90;;;;;;5011382;28;20495;-77
2022/03/07 10:05:41;;;;;;;3.78;2.30;;;20.30;45.00;;;;;;5010231;28;20033;-77
2022/03/07 10:08:08;;;;;;;2.95;2.13;;;20.30;45.00;;;;;;5011537;28;20072;-77
2022/03/07 10:10:37;;;;;;;3.90;2.17;;;20.30;44.90;;;;;;5011665;28;20578;-76
2022/03/07 10:13:07;;;;;;;4.22;2.20;;;20.30;44.90;;;;;;5015595;28;20389;-76
2022/03/07 10:15:33;;;;;;;4.63;2.22;;;20.30;44.90;;;;;;5015840;28;20029;-77
2022/03/07 10:17:59;;;;;;;4.13;2.17;;;20.30;45.00;;;;;;5014513;28;20390;-76
2022/03/07 10:20:26;;;;;;;3.55;2.17;;;20.30;45.00;;;;;;5016059;28;20030;-76
2022/03/07 10:22:54;;;;;;;3.10;2.05;;;20.30;45.00;;;;;;5017541;28;20076;-77
2022/03/07 10:25:29;;;;;;;3.20;2.20;;;20.30;45.00;;;;;;5017175;28;20026;-77
2022/03/07 10:27:56;;;;;;;3.88;2.20;;;20.30;45.00;;;;;;5018134;28;20033;-77
2022/03/07 10:30:24;;;;;;;3.17;2.10;;;20.30;45.00;;;;;;5016923;28;20435;-77
2022/03/07 10:32:59;;;;;;;3.42;2.38;;;20.30;45.10;;;;;;5001245;28;20030;-77
2022/03/07 10:35:37;;;;;;;3.67;2.15;;;20.30;45.20;;;;;;4998471;28;20061;-77
2022/03/07 10:38:12;;;;;;;2.80;2.20;;;20.30;45.20;;;;;;5017614;28;20045;-77
2022/03/07 10:40:41;;;;;;;3.90;2.20;;;20.30;45.30;;;;;;5016939;28;20026;-76
2022/03/07 10:43:08;;;;;;;3.13;2.13;;;20.30;45.30;;;;;;5016942;28;20034;-76
2022/03/07 10:45:55;;;;;;;2.88;2.30;;;20.30;45.30;;;;;;5013797;28;20288;-77
2022/03/07 10:48:22;;;;;;;3.38;1.90;;;20.30;45.10;;;;;;5014867;28;20026;-76
2022/03/07 10:50:51;;;;;;;3.42;2.13;;;20.30;45.20;;;;;;5014014;28;20041;-76
2022/03/07 10:53:18;;;;;;;4.35;2.17;;;20.30;45.20;;;;;;5013437;28;20029;-76
2022/03/07 10:55:55;;;;;;;3.70;2.10;;;20.30;45.20;;;;;;5014481;28;20083;-76
2022/03/07 10:58:21;;;;;;;4.32;2.35;;;20.30;45.20;;;;;;5013426;28;20042;-76
2022/03/07 11:01:01;;;;;;;4.03;2.38;;;20.30;45.20;;;;;;5012914;28;20038;-76
2022/03/07 11:03:33;;;;;;;2.72;1.98;;;20.30;45.10;;;;;;5013366;28;20387;-75
2022/03/07 11:06:00;;;;;;;3.22;2.17;;;20.30;45.10;;;;;;5014245;28;20029;-76
2022/03/07 11:08:28;;;;;;;2.88;2.15;;;20.30;45.00;;;;;;5013204;28;20037;-76
2022/03/07 11:10:55;;;;;;;4.00;2.40;;;20.30;45.00;;;;;;5013656;28;20033;-76
2022/03/07 11:13:27;;;;;;;2.95;2.00;;;20.30;45.00;;;;;;5013933;28;20029;-75
2022/03/07 11:16:00;;;;;;;3.42;2.13;;;20.30;45.10;;;;;;5012547;28;20026;-75
2022/03/07 11:18:27;;;;;;;3.85;2.25;;;20.30;45.00;;;;;;5013131;28;20042;-75
2022/03/07 11:20:55;;;;;;;3.30;2.13;;;20.30;45.00;;;;;;5012420;28;20025;-76
2022/03/07 11:23:21;;;;;;;3.67;2.10;;;20.30;45.00;;;;;;5011719;28;20080;-76
2022/03/07 11:25:53;;;;;;;3.05;2.42;;;20.30;45.10;;;;;;5011995;28;20529;-77
2022/03/07 11:28:22;;;;;;;3.60;2.22;;;20.30;45.10;;;;;;5014199;28;20468;-76
2022/03/07 11:30:48;;;;;;;3.28;1.98;;;20.30;45.20;;;;;;5013356;28;20022;-77
2022/03/07 11:33:27;;;;;;;2.30;1.88;;;20.30;45.20;;;;;;5013579;28;20041;-77
2022/03/07 11:35:54;;;;;;;4.90;2.60;;;20.30;45.30;;;;;;5013574;28;20080;-77
2022/03/07 11:38:23;;;;;;;3.88;2.15;;;20.30;45.30;;;;;;5013437;28;20505;-77
2022/03/07 11:41:00;;;;;;;3.50;2.10;;;20.30;45.30;;;;;;4995599;28;20030;-77
2022/03/07 11:43:29;;;;;;;3.38;2.08;;;20.30;45.30;;;;;;5012300;28;20037;-77
2022/03/07 11:45:56;;;;;;;3.47;2.25;;;20.30;45.30;;;;;;5013454;28;20106;-78
2022/03/07 11:48:23;;;;;;;3.60;2.35;;;20.30;45.20;;;;;;4996123;28;20059;-77
2022/03/07 11:50:49;;;;;;;4.95;2.35;;;20.30;45.20;;;;;;5013462;28;20029;-77
2022/03/07 11:53:15;;;;;;;3.03;2.00;;;20.30;45.20;;;;;;5012100;28;20022;-77
2022/03/07 11:55:59;;;;;;;3.28;2.20;;;20.30;45.30;;;;;;4995601;28;20132;-78
2022/03/07 11:58:30;;;;;;;3.13;2.38;;;20.30;45.20;;;;;;4995691;28;20038;-78
2022/03/07 12:01:10;;;;;;;3.85;2.20;;;20.30;45.20;;;;;;5012580;28;20061;-77
2022/03/07 12:03:36;;;;;;;3.38;1.92;;;20.30;45.20;;;;;;4995471;28;20038;-78
2022/03/07 12:06:04;;;;;;;3.22;2.05;;;20.30;45.20;;;;;;5011709;28;20030;-78
2022/03/07 12:08:41;;;;;;;3.05;2.30;;;20.30;45.20;;;;;;5011721;28;20030;-77
2022/03/07 12:11:07;;;;;;;3.15;2.00;;;20.30;45.30;;;;;;5012423;28;20026;-78
2022/03/07 12:13:44;;;;;;;3.50;2.20;;;20.30;45.30;;;;;;5012652;28;20037;-78
2022/03/07 12:16:10;;;;;;;3.10;2.10;;;20.30;45.30;;;;;;5014760;28;20108;-76
2022/03/07 12:18:36;;;;;;;3.38;2.20;;;20.30;45.30;;;;;;5014208;28;20077;-76
2022/03/07 12:21:03;;;;;;;3.80;2.00;;;20.30;45.30;;;;;;4996293;28;20037;-76
2022/03/07 12:23:35;;;;;;;;;;;20.30;45.20;;;;;;5013935;28;20033;-76
2022/03/07 12:26:06;;;;;;;2.63;1.85;;;20.30;45.20;;;;;;5012447;28;19913;-76
2022/03/07 12:28:36;;;;;;;4.30;2.30;;;20.30;45.20;;;;;;5012501;28;20033;-76
2022/03/07 12:31:03;;;;;;;3.22;2.33;;;20.30;45.20;;;;;;5012276;28;20038;-77
2022/03/07 12:33:29;;;;;;;4.47;2.13;;;20.30;45.10;;;;;;5011792;28;20026;-76
2022/03/07 12:36:10;;;;;;;3.92;2.45;;;20.30;45.10;;;;;;5011209;28;20505;-76
2022/03/07 12:38:52;;;;;;;2.97;2.15;;;20.20;44.90;;;;;;5012276;28;20030;-76
2022/03/07 12:41:29;;;;;;;3.53;2.25;;;20.20;44.80;;;;;;5012185;28;20041;-76
2022/03/07 12:43:55;;;;;;;3.20;2.20;;;20.20;44.80;;;;;;4995153;28;20121;-76
2022/03/07 12:46:20;;;;;;;4.40;2.13;;;20.20;44.80;;;;;;5011466;28;20105;-75
2022/03/07 12:48:47;;;;;;;3.35;2.35;;;20.20;44.80;;;;;;5011473;28;20022;-77